createdAt,value
2023-05-20T00:00:34.710Z,7.90
2023-05-20T00:03:01.448Z,8.17
2023-05-20T00:05:28.092Z,8.57
2023-05-20T00:07:54.704Z,7.57
2023-05-20T00:10:21.291Z,7.70
2023-05-20T00:12:47.863Z,7.97
2023-05-20T00:15:14.483Z,10.07
2023-05-20T00:17:41.186Z,8.43
2023-05-20T00:20:08.504Z,7.60
2023-05-20T00:22:35.100Z,7.77
2023-05-20T00:25:01.736Z,7.70
2023-05-20T00:27:28.389Z,7.27
2023-05-20T00:29:54.994Z,7.80
2023-05-20T00:32:21.665Z,7.67
2023-05-20T00:34:58.356Z,7.17
2023-05-20T00:37:25.297Z,7.33
2023-05-20T00:39:51.989Z,7.57
2023-05-20T00:42:25.686Z,7.73
2023-05-20T00:44:52.802Z,8.27
2023-05-20T00:47:20.707Z,7.60
2023-05-20T00:49:50.327Z,7.17
2023-05-20T00:52:19.056Z,7.87
2023-05-20T00:54:45.938Z,7.63
2023-05-20T00:57:13.338Z,7.83
2023-05-20T00:59:40.990Z,7.13
2023-05-20T01:02:08.587Z,7.23
2023-05-20T01:04:35.161Z,7.50
2023-05-20T01:07:04.478Z,7.97
2023-05-20T01:09:32.175Z,8.40
2023-05-20T01:11:59.240Z,7.73
2023-05-20T01:14:27.485Z,7.80
2023-05-20T01:16:55.479Z,7.50
2023-05-20T01:19:34.252Z,8.10
2023-05-20T01:22:03.331Z,7.60
2023-05-20T01:24:29.899Z,7.93
2023-05-20T01:26:58.326Z,7.47
2023-05-20T01:29:25.454Z,7.23
2023-05-20T01:31:53.447Z,7.60
2023-05-20T01:34:20.225Z,8.13
2023-05-20T01:36:48.635Z,8.30
2023-05-20T01:39:15.970Z,8.30
2023-05-20T01:41:42.930Z,7.63
2023-05-20T01:44:10.085Z,7.73
2023-05-20T01:46:36.844Z,8.37
2023-05-20T01:49:04.180Z,8.77
2023-05-20T01:51:33.673Z,7.73
2023-05-20T01:54:00.744Z,8.00
2023-05-20T01:56:27.347Z,8.50
2023-05-20T01:58:54.002Z,8.07
2023-05-20T02:01:20.813Z,8.33
2023-05-20T02:03:47.485Z,8.23
2023-05-20T02:06:14.173Z,7.33
2023-05-20T02:08:40.817Z,8.47
2023-05-20T02:11:07.613Z,8.77
2023-05-20T02:13:34.252Z,8.83
2023-05-20T02:16:01.072Z,9.17
2023-05-20T02:18:27.785Z,8.10
2023-05-20T02:20:54.498Z,8.87
2023-05-20T02:23:21.135Z,8.80
2023-05-20T02:25:47.769Z,9.30
2023-05-20T02:28:15.874Z,8.90
2023-05-20T02:30:42.478Z,8.80
2023-05-20T02:33:09.907Z,8.43
2023-05-20T02:35:36.895Z,9.27
2023-05-20T02:38:03.929Z,9.53
2023-05-20T02:40:30.627Z,8.93
2023-05-20T02:42:57.821Z,9.83
2023-05-20T02:45:24.514Z,9.67
2023-05-20T02:47:51.162Z,9.67
2023-05-20T02:50:17.795Z,9.70
2023-05-20T02:52:45.668Z,10.07
2023-05-20T02:55:12.645Z,10.20
2023-05-20T02:57:39.585Z,9.50
2023-05-20T03:00:11.071Z,10.60
2023-05-20T03:02:37.855Z,10.00
2023-05-20T03:05:05.272Z,10.13
2023-05-20T03:07:34.362Z,10.40
2023-05-20T03:10:02.829Z,10.33
2023-05-20T03:12:30.015Z,10.17
2023-05-20T03:14:58.914Z,10.97
2023-05-20T03:17:25.974Z,11.07
2023-05-20T03:19:52.698Z,11.03
2023-05-20T03:22:19.289Z,11.37
2023-05-20T03:24:46.500Z,11.40
2023-05-20T03:27:13.529Z,12.30
2023-05-20T03:29:41.053Z,10.97
2023-05-20T03:32:10.731Z,12.00
2023-05-20T03:34:38.643Z,11.93
2023-05-20T03:37:06.139Z,11.90
2023-05-20T03:39:32.834Z,11.40
2023-05-20T03:41:59.996Z,11.17
2023-05-20T03:44:26.751Z,11.40
2023-05-20T03:46:53.976Z,12.80
2023-05-20T03:49:20.602Z,11.70
2023-05-20T03:51:47.216Z,11.67
2023-05-20T03:54:16.781Z,11.50
2023-05-20T03:56:47.146Z,11.90
2023-05-20T03:59:13.849Z,12.40
2023-05-20T04:01:40.594Z,12.00
2023-05-20T04:04:07.307Z,11.23
2023-05-20T04:06:34.213Z,12.10
2023-05-20T04:09:01.205Z,11.00
2023-05-20T04:11:27.838Z,12.70
2023-05-20T04:13:54.904Z,11.77
2023-05-20T04:16:21.722Z,12.73
2023-05-20T04:18:49.102Z,12.53
2023-05-20T04:21:16.367Z,13.67
2023-05-20T04:23:43.162Z,12.53
2023-05-20T04:26:09.788Z,13.30
2023-05-20T04:28:37.797Z,12.57
2023-05-20T04:31:04.977Z,13.67
2023-05-20T04:33:38.733Z,13.60
2023-05-20T04:36:07.447Z,12.37
2023-05-20T04:38:35.394Z,13.60
2023-05-20T04:41:02.328Z,13.43
2023-05-20T04:43:30.329Z,13.63
2023-05-20T04:45:58.051Z,14.00
2023-05-20T04:48:25.856Z,14.63
2023-05-20T04:50:52.735Z,13.70
2023-05-20T04:53:19.400Z,13.70
2023-05-20T04:55:46.188Z,14.87
2023-05-20T04:58:15.653Z,14.67
2023-05-20T05:00:42.414Z,14.77
2023-05-20T05:03:09.245Z,14.47
2023-05-20T05:05:37.013Z,14.70
2023-05-20T05:08:04.099Z,13.97
2023-05-20T05:10:31.800Z,14.93
2023-05-20T05:12:58.852Z,14.50
2023-05-20T05:15:26.014Z,14.33
2023-05-20T05:17:52.830Z,14.90
2023-05-20T05:20:19.567Z,16.17
2023-05-20T05:22:46.401Z,14.93
2023-05-20T05:25:13.441Z,16.60
2023-05-20T05:27:40.564Z,16.23
2023-05-20T05:30:08.049Z,16.10
2023-05-20T05:32:35.282Z,15.83
2023-05-20T05:35:02.117Z,15.20
2023-05-20T05:37:28.718Z,15.70
2023-05-20T05:39:55.367Z,16.67
2023-05-20T05:42:21.997Z,15.73
2023-05-20T05:44:50.003Z,16.20
2023-05-20T05:47:16.667Z,15.63
2023-05-20T05:49:43.352Z,17.27
2023-05-20T05:52:09.949Z,16.40
2023-05-20T05:54:36.677Z,15.87
2023-05-20T05:57:05.775Z,17.47
2023-05-20T05:59:33.618Z,16.53
2023-05-20T06:02:00.329Z,16.10
2023-05-20T06:04:27.079Z,17.07
2023-05-20T06:06:56.650Z,16.73
2023-05-20T06:09:23.212Z,17.53
2023-05-20T06:11:51.814Z,17.17
2023-05-20T06:14:18.422Z,16.33
2023-05-20T06:16:45.138Z,16.43
2023-05-20T06:19:12.379Z,17.33
2023-05-20T06:21:39.329Z,16.40
2023-05-20T06:24:06.094Z,17.63
2023-05-20T06:26:35.209Z,17.63
2023-05-20T06:29:03.352Z,16.63
2023-05-20T06:31:30.345Z,16.00
2023-05-20T06:33:57.305Z,16.87
2023-05-20T06:36:24.129Z,17.43
2023-05-20T06:38:50.709Z,17.47
2023-05-20T06:41:17.452Z,17.50
2023-05-20T06:43:44.570Z,18.47
2023-05-20T06:46:29.168Z,17.77
2023-05-20T06:49:01.344Z,15.87
2023-05-20T06:51:28.483Z,17.80
2023-05-20T06:53:55.459Z,16.70
2023-05-20T06:56:22.225Z,16.83
2023-05-20T06:58:49.022Z,17.67
2023-05-20T07:01:17.931Z,16.97
2023-05-20T07:03:45.911Z,16.70
2023-05-20T07:06:12.951Z,16.60
2023-05-20T07:08:39.689Z,17.83
2023-05-20T07:11:06.420Z,16.23
2023-05-20T07:13:33.333Z,17.77
2023-05-20T07:16:00.026Z,18.17
2023-05-20T07:18:28.461Z,17.43
2023-05-20T07:20:59.649Z,15.77
2023-05-20T07:23:52.269Z,16.37
2023-05-20T07:26:18.877Z,16.13
2023-05-20T07:28:47.149Z,16.00
2023-05-20T07:31:14.030Z,16.60
2023-05-20T07:33:44.480Z,16.43
2023-05-20T07:36:11.784Z,15.67
2023-05-20T07:38:45.050Z,15.47
2023-05-20T07:41:19.777Z,16.60
2023-05-20T07:43:46.529Z,16.70
2023-05-20T07:46:13.133Z,16.43
2023-05-20T07:48:40.188Z,15.70
2023-05-20T07:51:06.804Z,16.37
2023-05-20T07:53:33.961Z,17.17
2023-05-20T07:56:01.037Z,15.57
2023-05-20T07:58:29.470Z,16.17
2023-05-20T08:00:56.568Z,17.13
2023-05-20T08:03:23.506Z,18.63
2023-05-20T08:05:59.060Z,19.03
2023-05-20T08:08:26.906Z,18.87
2023-05-20T08:11:01.682Z,18.03
2023-05-20T08:13:30.176Z,18.17
2023-05-20T08:15:56.857Z,19.43
2023-05-20T08:18:25.393Z,19.43
2023-05-20T08:20:52.147Z,20.20
2023-05-20T08:23:19.535Z,20.73
2023-05-20T08:25:46.969Z,19.53
2023-05-20T08:28:14.259Z,20.37
2023-05-20T08:30:41.642Z,20.47
2023-05-20T08:33:08.646Z,19.00
2023-05-20T08:35:36.002Z,19.63
2023-05-20T08:38:02.866Z,19.10
2023-05-20T08:40:29.521Z,19.60
2023-05-20T08:42:57.767Z,18.73
2023-05-20T08:45:27.932Z,19.43
2023-05-20T08:47:59.348Z,19.00
2023-05-20T08:50:26.035Z,17.33
2023-05-20T08:52:52.673Z,18.23
2023-05-20T08:55:24.020Z,18.90
2023-05-20T08:57:51.410Z,19.50
2023-05-20T09:00:18.633Z,18.80
2023-05-20T09:02:46.255Z,19.63
2023-05-20T09:05:13.402Z,18.33
2023-05-20T09:07:40.192Z,18.63
2023-05-20T09:10:07.037Z,18.37
2023-05-20T09:12:33.650Z,19.43
2023-05-20T09:15:00.293Z,19.30
2023-05-20T09:17:27.000Z,18.13
2023-05-20T09:19:54.047Z,18.57
2023-05-20T09:22:28.163Z,17.83
2023-05-20T09:24:55.456Z,18.03
2023-05-20T09:27:22.322Z,16.57
2023-05-20T09:29:49.199Z,16.83
2023-05-20T09:32:16.400Z,16.43
2023-05-20T09:34:43.244Z,16.43
2023-05-20T09:37:10.059Z,16.10
2023-05-20T09:39:58.121Z,16.23
2023-05-20T09:42:26.632Z,15.90
2023-05-20T09:44:58.131Z,17.07
2023-05-20T09:47:25.366Z,17.07
2023-05-20T09:49:52.771Z,16.00
2023-05-20T09:52:21.339Z,16.77
2023-05-20T09:54:48.526Z,16.03
2023-05-20T09:57:15.411Z,16.93
2023-05-20T09:59:42.263Z,16.60
2023-05-20T10:02:08.986Z,17.00
2023-05-20T10:04:37.330Z,15.57
2023-05-20T10:07:14.211Z,16.63
2023-05-20T10:09:52.868Z,16.63
2023-05-20T10:12:51.513Z,16.10
2023-05-20T10:15:24.296Z,15.30
2023-05-20T10:17:51.182Z,14.30
2023-05-20T10:20:18.122Z,14.93
2023-05-20T10:22:54.875Z,14.40
2023-05-20T10:25:26.768Z,14.13
2023-05-20T10:28:03.824Z,13.70
2023-05-20T10:30:30.668Z,14.43
2023-05-20T10:33:00.763Z,14.33
2023-05-20T10:35:27.756Z,14.17
2023-05-20T10:37:55.290Z,15.17
2023-05-20T10:40:22.956Z,14.70
2023-05-20T10:42:49.582Z,13.37
2023-05-20T10:45:26.602Z,13.40
2023-05-20T10:47:57.098Z,14.23
2023-05-20T10:50:49.976Z,13.47
2023-05-20T10:53:29.405Z,13.40
2023-05-20T10:55:59.880Z,13.27
2023-05-20T10:58:26.673Z,13.53
2023-05-20T11:00:54.527Z,13.77
2023-05-20T11:03:24.628Z,12.90
2023-05-20T11:05:51.738Z,12.27
2023-05-20T11:08:28.679Z,13.27
2023-05-20T11:10:56.905Z,13.17
2023-05-20T11:13:23.622Z,12.50
2023-05-20T11:15:50.542Z,12.13
2023-05-20T11:18:18.911Z,13.07
2023-05-20T11:20:46.581Z,12.37
2023-05-20T11:23:14.122Z,12.57
2023-05-20T11:25:40.689Z,12.27
2023-05-20T11:28:09.869Z,12.13
2023-05-20T11:30:36.863Z,12.77
2023-05-20T11:33:04.298Z,12.60
2023-05-20T11:35:32.287Z,11.40
2023-05-20T11:38:09.492Z,11.87
2023-05-20T11:40:49.602Z,13.17
2023-05-20T11:43:17.643Z,12.83
2023-05-20T11:45:48.503Z,12.27
2023-05-20T11:48:18.002Z,12.20
2023-05-20T11:50:45.843Z,11.60
2023-05-20T11:53:19.104Z,11.63
2023-05-20T11:55:50.089Z,12.27
2023-05-20T11:58:17.846Z,12.13
2023-05-20T12:03:17.106Z,12.10
2023-05-20T12:05:44.116Z,12.93
2023-05-20T12:08:10.751Z,12.37
2023-05-20T12:10:38.079Z,12.50
2023-05-20T12:13:08.621Z,12.53
2023-05-20T12:15:36.304Z,12.67
2023-05-20T12:18:03.513Z,11.63
2023-05-20T12:20:31.520Z,11.43
2023-05-20T12:22:58.914Z,11.60
2023-05-20T12:25:25.984Z,10.67
2023-05-20T12:27:52.671Z,10.83
2023-05-20T12:30:20.181Z,11.43
2023-05-20T12:32:47.243Z,10.60
2023-05-20T12:35:14.211Z,10.63
2023-05-20T12:37:44.268Z,12.70
2023-05-20T12:40:12.706Z,11.43
2023-05-20T12:42:39.648Z,11.33
2023-05-20T12:45:06.603Z,11.50
2023-05-20T12:47:33.421Z,12.07
2023-05-20T12:50:00.612Z,11.60
2023-05-20T12:52:27.390Z,11.20
2023-05-20T12:54:54.556Z,11.87
2023-05-20T12:57:21.625Z,12.35
2023-05-20T12:59:48.244Z,12.07
2023-05-20T13:02:14.900Z,10.97
2023-05-20T13:04:41.529Z,14.87
2023-05-20T13:07:08.116Z,12.90
2023-05-20T13:09:34.794Z,12.57
2023-05-20T13:12:02.135Z,12.80
2023-05-20T13:14:28.770Z,13.13
2023-05-20T13:16:55.524Z,13.17
2023-05-20T13:19:22.733Z,13.53
2023-05-20T13:21:49.842Z,13.70
2023-05-20T13:24:17.072Z,13.40
2023-05-20T13:26:43.984Z,14.27
2023-05-20T13:29:10.753Z,15.63
2023-05-20T13:31:37.602Z,15.37
2023-05-20T13:34:04.561Z,15.23
2023-05-20T13:36:31.371Z,14.40
2023-05-20T13:38:59.010Z,14.87
2023-05-20T13:41:26.727Z,14.83
2023-05-20T13:43:53.332Z,15.77
2023-05-20T13:46:19.966Z,15.53
2023-05-20T13:48:46.563Z,15.63
2023-05-20T13:51:13.184Z,18.73
2023-05-20T13:53:40.105Z,17.57
2023-05-20T13:56:09.232Z,17.37
2023-05-20T13:58:36.761Z,18.20
2023-05-20T14:01:04.777Z,17.63
2023-05-20T14:03:33.259Z,16.50
2023-05-20T14:06:00.769Z,18.03
2023-05-20T14:08:27.445Z,18.23
2023-05-20T14:10:55.520Z,17.67
2023-05-20T14:13:22.678Z,17.33
2023-05-20T14:15:50.724Z,17.13
2023-05-20T14:18:17.726Z,16.57
2023-05-20T14:20:44.698Z,16.93
2023-05-20T14:23:11.742Z,15.83
2023-05-20T14:25:38.437Z,17.00
2023-05-20T14:28:05.304Z,17.50
2023-05-20T14:30:32.201Z,18.17
2023-05-20T14:32:58.896Z,17.97
2023-05-20T14:35:25.535Z,16.90
2023-05-20T14:37:52.565Z,17.07
2023-05-20T14:40:19.287Z,17.70
2023-05-20T14:42:45.962Z,16.87
2023-05-20T14:45:12.547Z,16.00
2023-05-20T14:47:42.477Z,17.37
2023-05-20T14:50:09.301Z,15.67
2023-05-20T14:52:35.982Z,17.40
2023-05-20T14:55:02.588Z,17.00
2023-05-20T14:57:29.218Z,16.97
2023-05-20T14:59:55.933Z,16.20
2023-05-20T15:02:22.613Z,16.63
2023-05-20T15:04:49.342Z,15.87
2023-05-20T15:07:16.071Z,14.87
2023-05-20T15:09:43.939Z,14.80
2023-05-20T15:12:14.101Z,15.17
2023-05-20T15:14:40.688Z,14.00
2023-05-20T15:17:07.761Z,15.27
2023-05-20T15:19:34.705Z,14.97
2023-05-20T15:22:01.462Z,15.30
2023-05-20T15:24:28.061Z,15.13
2023-05-20T15:26:55.122Z,15.30
2023-05-20T15:29:22.056Z,15.53
2023-05-20T15:31:48.694Z,15.20
2023-05-20T15:34:15.381Z,15.07
2023-05-20T15:36:41.981Z,14.37
2023-05-20T15:39:09.090Z,14.60
2023-05-20T15:41:39.858Z,15.73
2023-05-20T15:44:07.168Z,15.97
2023-05-20T15:46:33.798Z,15.70
2023-05-20T15:49:00.463Z,17.00
2023-05-20T15:51:27.027Z,16.03
2023-05-20T15:53:53.591Z,15.87
2023-05-20T15:56:20.188Z,16.37
2023-05-20T15:58:46.810Z,16.00
2023-05-20T16:01:13.448Z,16.40
2023-05-20T16:03:40.065Z,18.10
2023-05-20T16:06:07.459Z,17.03
2023-05-20T16:08:36.284Z,17.40
2023-05-20T16:11:03.097Z,15.50
2023-05-20T16:13:29.838Z,16.60
2023-05-20T16:15:57.923Z,15.53
2023-05-20T16:18:28.534Z,16.50
2023-05-20T16:20:55.526Z,15.67
2023-05-20T16:23:22.197Z,14.60
2023-05-20T16:25:50.069Z,15.80
2023-05-20T16:28:16.658Z,16.17
2023-05-20T16:30:43.302Z,16.00
2023-05-20T16:33:10.066Z,15.80
2023-05-20T16:35:36.754Z,16.37
2023-05-20T16:38:03.335Z,15.70
2023-05-20T16:40:29.962Z,16.40
2023-05-20T16:42:56.527Z,15.63
2023-05-20T16:45:23.105Z,16.77
2023-05-20T16:47:49.819Z,15.10
2023-05-20T16:50:16.468Z,22.50
2023-05-20T16:52:43.179Z,18.53
2023-05-20T16:55:10.283Z,15.77
2023-05-20T16:57:36.965Z,15.83
2023-05-20T17:00:07.959Z,17.47
2023-05-20T17:02:34.569Z,18.93
2023-05-20T17:05:01.501Z,18.63
2023-05-20T17:07:28.099Z,19.67
2023-05-20T17:09:54.662Z,21.27
2023-05-20T17:12:21.562Z,18.87
2023-05-20T17:14:48.156Z,19.53
2023-05-20T17:17:15.100Z,20.67
2023-05-20T17:19:42.007Z,20.80
2023-05-20T17:22:08.694Z,22.00
2023-05-20T17:24:35.901Z,22.20
2023-05-20T17:27:03.971Z,22.93
2023-05-20T17:29:30.646Z,22.63
2023-05-20T17:31:57.455Z,24.20
2023-05-20T17:34:24.035Z,24.47
2023-05-20T17:36:50.589Z,24.20
2023-05-20T17:39:17.256Z,24.47
2023-05-20T17:41:44.350Z,25.50
2023-05-20T17:44:10.910Z,24.10
2023-05-20T17:46:37.684Z,24.83
2023-05-20T17:49:04.485Z,23.83
2023-05-20T17:51:31.866Z,23.97
2023-05-20T17:53:58.454Z,24.10
2023-05-20T17:56:25.124Z,22.83
2023-05-20T17:58:52.036Z,22.83
2023-05-20T18:01:19.812Z,22.43
2023-05-20T18:03:46.780Z,21.53
2023-05-20T18:06:13.965Z,21.33
2023-05-20T18:08:40.706Z,19.70
2023-05-20T18:11:07.279Z,21.40
2023-05-20T18:13:33.841Z,19.77
2023-05-20T18:16:00.657Z,20.63
2023-05-20T18:18:27.266Z,20.47
2023-05-20T18:20:53.836Z,19.17
2023-05-20T18:23:20.482Z,19.27
2023-05-20T18:25:47.046Z,19.60
2023-05-20T18:28:13.717Z,18.37
2023-05-20T18:30:40.484Z,18.80
2023-05-20T18:33:07.393Z,19.60
2023-05-20T18:35:34.015Z,19.40
2023-05-20T18:38:00.623Z,17.53
2023-05-20T18:40:28.220Z,17.57
2023-05-20T18:42:54.909Z,17.33
2023-05-20T18:45:21.998Z,16.80
2023-05-20T18:47:48.934Z,16.20
2023-05-20T18:50:15.606Z,17.10
2023-05-20T18:52:42.274Z,16.70
2023-05-20T18:55:08.944Z,15.73
2023-05-20T18:57:35.805Z,16.17
2023-05-20T19:00:02.920Z,16.37
2023-05-20T19:02:29.559Z,15.93
2023-05-20T19:04:56.509Z,17.33
2023-05-20T19:07:23.622Z,16.77
2023-05-20T19:09:52.048Z,17.00
2023-05-20T19:12:18.672Z,17.47
2023-05-20T19:14:46.605Z,16.90
2023-05-20T19:17:13.837Z,16.77
2023-05-20T19:19:40.525Z,16.40
2023-05-20T19:22:07.213Z,15.57
2023-05-20T19:24:33.984Z,17.20
2023-05-20T19:27:01.819Z,18.30
2023-05-20T19:29:28.450Z,16.73
2023-05-20T19:31:55.724Z,16.43
2023-05-20T19:34:22.547Z,17.17
2023-05-20T19:36:49.170Z,16.57
2023-05-20T19:39:15.837Z,14.53
2023-05-20T19:41:42.461Z,16.10
2023-05-20T19:44:09.032Z,18.10
2023-05-20T19:46:36.102Z,17.77
2023-05-20T19:49:03.071Z,17.50
2023-05-20T19:51:29.645Z,16.93
2023-05-20T19:53:56.268Z,17.27
2023-05-20T19:56:24.123Z,16.93
2023-05-20T19:58:53.570Z,18.03
2023-05-20T20:01:20.511Z,18.20
2023-05-20T20:03:47.210Z,19.37
2023-05-20T20:06:13.814Z,18.13
2023-05-20T20:08:40.423Z,18.30
2023-05-20T20:11:07.447Z,18.17
2023-05-20T20:13:34.102Z,16.93
2023-05-20T20:16:00.757Z,16.67
2023-05-20T20:18:27.378Z,18.93
2023-05-20T20:20:54.171Z,18.07
2023-05-20T20:23:20.949Z,19.97
2023-05-20T20:25:50.695Z,19.93
2023-05-20T20:28:17.376Z,19.93
2023-05-20T20:30:43.954Z,20.60
2023-05-20T20:33:11.208Z,19.30
2023-05-20T20:35:38.188Z,19.17
2023-05-20T20:38:10.815Z,20.70
2023-05-20T20:40:47.240Z,21.53
2023-05-20T20:43:20.554Z,20.73
2023-05-20T20:45:47.924Z,19.37
2023-05-20T20:48:18.985Z,18.77
2023-05-20T20:50:47.986Z,18.47
2023-05-20T20:53:16.414Z,18.93
2023-05-20T20:55:51.202Z,20.27
2023-05-20T20:58:17.848Z,18.73
2023-05-20T21:00:45.746Z,18.00
2023-05-20T21:03:12.984Z,22.17
2023-05-20T21:05:39.829Z,19.20
2023-05-20T21:08:08.595Z,20.97
2023-05-20T21:10:37.106Z,22.57
2023-05-20T21:13:04.078Z,21.67
2023-05-20T21:15:30.695Z,21.10
2023-05-20T21:17:57.291Z,21.17
2023-05-20T21:20:24.052Z,22.70
2023-05-20T21:22:50.614Z,23.07
2023-05-20T21:25:17.271Z,21.97
2023-05-20T21:27:43.982Z,23.73
2023-05-20T21:30:10.978Z,22.33
2023-05-20T21:32:38.055Z,24.20
2023-05-20T21:35:04.939Z,22.47
2023-05-20T21:37:31.627Z,23.13
2023-05-20T21:39:58.219Z,21.77
2023-05-20T21:42:24.845Z,22.57
2023-05-20T21:44:51.592Z,22.33
2023-05-20T21:47:19.668Z,21.87
2023-05-20T21:49:48.060Z,24.43
2023-05-20T21:52:14.697Z,22.63
2023-05-20T21:54:41.736Z,21.70
2023-05-20T21:57:08.335Z,22.50
2023-05-20T21:59:34.963Z,23.97
2023-05-20T22:02:01.951Z,24.67
2023-05-20T22:04:28.806Z,23.63
2023-05-20T22:06:56.239Z,23.87
2023-05-20T22:09:23.022Z,23.50
2023-05-20T22:11:49.728Z,22.67
2023-05-20T22:14:16.892Z,23.80
2023-05-20T22:16:46.494Z,22.80
2023-05-20T22:19:14.033Z,23.73
2023-05-20T22:21:50.112Z,25.90
2023-05-20T22:24:17.841Z,24.53
2023-05-20T22:26:44.615Z,24.20
2023-05-20T22:29:11.231Z,25.77
2023-05-20T22:31:38.180Z,25.00
2023-05-20T22:34:05.542Z,25.80
2023-05-20T22:36:36.357Z,27.10
2023-05-20T22:39:03.959Z,27.47
2023-05-20T22:41:30.939Z,33.23
2023-05-20T22:43:57.747Z,35.30
2023-05-20T22:46:24.714Z,36.20
2023-05-20T22:48:53.090Z,36.87
2023-05-20T22:51:24.560Z,35.20
2023-05-20T22:53:51.554Z,33.83
2023-05-20T22:56:18.534Z,32.57
2023-05-20T22:58:45.878Z,30.70
2023-05-20T23:01:12.524Z,32.43
2023-05-20T23:03:39.976Z,31.03
2023-05-20T23:06:06.659Z,30.13
2023-05-20T23:08:33.247Z,31.07
2023-05-20T23:10:59.827Z,31.23
2023-05-20T23:13:26.548Z,31.23
2023-05-20T23:15:53.296Z,30.40
2023-05-20T23:18:19.948Z,28.80
2023-05-20T23:20:47.719Z,29.43
2023-05-20T23:23:14.362Z,29.60
2023-05-20T23:25:42.060Z,27.87
2023-05-20T23:28:10.234Z,30.93
2023-05-20T23:30:36.825Z,27.33
2023-05-20T23:33:03.995Z,27.37
2023-05-20T23:35:30.801Z,29.47
2023-05-20T23:37:57.514Z,27.23
2023-05-20T23:40:24.113Z,27.27
2023-05-20T23:42:50.957Z,28.10
2023-05-20T23:45:17.505Z,27.53
2023-05-20T23:47:44.593Z,29.67
2023-05-20T23:50:11.387Z,28.60
2023-05-20T23:52:38.007Z,28.57
2023-05-20T23:55:04.743Z,29.43
2023-05-20T23:57:31.687Z,29.93
2023-05-20T23:59:58.277Z,29.07
